Domov               UVHVVR             MKGP            O straneh              
ZDRAVSTVENO VARSTVO RASTLIN
  MREŽA AGROMET. POSTAJ
 ► PROGNOSTIČNA OBVESTILA
AGROMETEOROLOŠKI PODATKI -
ARSO
OBVLADOVANJE TVEGANJ ZARADI
NEUGODNIH VREMENSKIH RAZMER
  ► NARAVNE NESREČE
  ► SUŠA/MOČA
  ► NAMAKANJE
  ► ŽLED (gozdarstvo)
KARTOGRAFSKI PRIKAZI
SPLETNE POVEZAVE
PROJEKTI IN PUBLIKACIJE

AGROMETEOROLOŠKA MREŽA: VREMENSKE POSTAJE IN FENOLOŠKA OPAZOVANJA

Pregled podatkov za lokacijo Tacen, meteorološka postaja 27389

Pregled senzorjev na lokaciji

ID Ime Zadnja
vrednost
Datum
zadnje
spremembe
Tip
senzorja
2222 Padavine (mm) 0 mm 19.2.2018 14:30 Generic 0.2 mm
2225 Relativna vlaga 2 m (% RH) 68,13 % RH 19.2.2018 14:30 Generic 0 - 100 %
2226 Temperatura 2 m (°C) 1,95 °C 19.2.2018 14:30 Generic -40 - +60 °C

Pregled podatkov zadnjih 24 ur

Zap.
št.
Datum in čas Tacen
Padavine Relativna
vlaga
2
m
Temperatura
2
m
1 19.2.2018 15:00
2 19.2.2018 14:30 0 68,1 2
3 19.2.2018 14:00 0 67,5 1,8
4 19.2.2018 13:30 0 68,4 1,7
5 19.2.2018 13:00 0 68,4 1,8
6 19.2.2018 12:30 0 70 1,6
7 19.2.2018 12:00 0 71 1,3
8 19.2.2018 11:30 0 74,3 1
9 19.2.2018 11:00 0 76,8 0,6
10 19.2.2018 10:30 0 78,8 0,4
11 19.2.2018 10:00 0 80,7 0
12 19.2.2018 09:30 0 75,3 0,3
13 19.2.2018 09:00 0 76,1 0,2
14 19.2.2018 08:30 0 82,9 -0,4
15 19.2.2018 08:00 0 88,3 -0,9
16 19.2.2018 07:30 0 81,7 -0,5
17 19.2.2018 07:00 0 77,2 -0,1
18 19.2.2018 06:30 0 76,8 0
19 19.2.2018 06:00 0 77,2 0,1
20 19.2.2018 05:30 0 77,9 0,1
21 19.2.2018 05:00 0 80,3 0,1
22 19.2.2018 04:30 0 83,9 0
23 19.2.2018 04:00 0 84,1 0,2
24 19.2.2018 03:30 0 81,9 0,5
25 19.2.2018 03:00 0 79,6 0,8
26 19.2.2018 02:30 0 79,2 0,9
27 19.2.2018 02:00 0 78,1 1
28 19.2.2018 01:30 0 76,8 1
29 19.2.2018 01:00 0 76,5 1,1
30 19.2.2018 00:30 0 77,2 1,1
31 19.2.2018 00:00 0 77,3 1,2
32 18.2.2018 23:30 0 77,7 1,3
33 18.2.2018 23:00 0 78,2 1,3
34 18.2.2018 22:30 0 79 1,4
35 18.2.2018 22:00 0 86,1 1
36 18.2.2018 21:30 0 88,5 0,9
37 18.2.2018 21:00 0 90,7 0,9
38 18.2.2018 20:30 0 92,3 0,9
39 18.2.2018 20:00 0 92,7 1
40 18.2.2018 19:30 0 92,9 1,1
41 18.2.2018 19:00 0 90,9 1,4
42 18.2.2018 18:30 0 90,3 1,5
43 18.2.2018 18:00 0 90,8 1,6
44 18.2.2018 17:30 0 89,3 1,8
45 18.2.2018 17:00 0 88,3 2
46 18.2.2018 16:30 0 86,9 2,1
47 18.2.2018 16:00 0 85,5 2,2
48 18.2.2018 15:30 0 84,2 2,5
© 2011 Ministrstvo za kmetijstvo, gozdarstvo in prehrano. Vse pravice pridržane.